Flight Track Log - Related Links

Times and Time Zones

All times are in EDT time to prevent confusion due to time zone crossing. See the N53NW flight status page for this flight to view local times or setup timezone preferences in your user account.

Time Position Orientation Groundspeed Altitude Reporting Facility
EDT Latitude Longitude Course Direction KTS MPH feet Rate Location/Type
Fri 11:48:55 AM 41.3961 -81.8842 253° West 185 213 1,700  Level Cleveland Center
Fri 11:50:23 AM 41.3675 -82.0053 253° West 249 287 7,100 3,365 Climbing Cleveland Center
Fri 11:51:23 AM 41.3392 -82.0958 247° West 262 302 10,000 3,000 Climbing Cleveland Center
Fri 11:52:23 AM 41.3086 -82.1919 247° West 286 329 13,100 3,200 Climbing Cleveland Center
Fri 11:53:23 AM 41.2761 -82.2878 246° West 299 344 16,400 2,975 Climbing Cleveland Center
Fri 11:54:24 AM 41.2431 -82.3892 247° West 294 338 19,100 2,550 Climbing Cleveland Center
Fri 11:55:23 AM 41.2103 -82.4931 247° West 294 338 21,500 2,450 Climbing Cleveland Center
Fri 11:56:24 AM 41.1667 -82.5967 241° Southwest 307 353 24,000 2,430 Climbing Cleveland Center
Fri 11:57:24 AM 41.1189 -82.7028 239° Southwest 328 377 26,400 2,420 Climbing Cleveland Center
Fri 11:58:23 AM 41.0608 -82.7944 230° Southwest 334 384 28,800 1,815 Climbing Cleveland Center
Fri 11:59:23 AM 40.9881 -82.8939 226° Southwest 334 384 30,000 1,650 Climbing Cleveland Center
Fri 12:00:23 PM 40.9194 -82.9875 226° Southwest 346 398 32,100 1,934 Climbing Cleveland Center
Fri 12:01:24 PM 40.8506 -83.0811 226° Southwest 346 398 33,900 1,216 Climbing Cleveland Center
Fri 12:02:56 PM 40.7558 -83.2133 227° Southwest 358 412 35,200 1,130 Climbing Indianapolis Center
Fri 12:03:58 PM 40.6892 -83.3056 226° Southwest 347 399 36,800 1,306 Climbing Indianapolis Center
Fri 12:05:00 PM 40.6256 -83.3933 226° Southwest 334 384 37,900 581 Climbing Indianapolis Center
Fri 12:06:02 PM 40.5442 -83.5050 226° Southwest 359 413 38,000 48 Climbing Indianapolis Center
Fri 12:07:04 PM 40.4697 -83.6047 226° Southwest 377 434 38,000  Level Indianapolis Center
Fri 12:08:06 PM 40.3986 -83.7042 227° Southwest 373 429 38,000 97 Level Indianapolis Center
Fri 12:09:08 PM 40.3269 -83.8000 226° Southwest 367 422 38,200 585 Climbing Indianapolis Center
Fri 12:10:09 PM 40.2558 -83.8942 225° Southwest 363 418 39,200 878 Climbing Indianapolis Center
Fri 12:11:11 PM 40.1867 -83.9883 226° Southwest 358 412 40,000 387 Climbing Indianapolis Center
Fri 12:12:13 PM 40.1014 -84.1022 226° Southwest 373 429 40,000  Level Indianapolis Center
Fri 12:13:15 PM 40.0278 -84.1997 225° Southwest 375 432 40,000  Level Indianapolis Center
Fri 12:14:17 PM 39.9544 -84.2972 226° Southwest 375 432 40,000  Level Indianapolis Center
Fri 12:15:19 PM 39.8811 -84.3931 225° Southwest 373 429 40,000  Level Indianapolis Center
Fri 12:16:21 PM 39.8078 -84.4906 226° Southwest 374 430 40,000  Level Indianapolis Center
Fri 12:17:23 PM 39.7347 -84.5869 225° Southwest 372 428 40,000  Level Indianapolis Center
Fri 12:18:25 PM 39.6631 -84.6811 225° Southwest 366 421 40,000  Level Indianapolis Center
Fri 12:19:27 PM 39.5781 -84.7903 225° Southwest 366 421 40,000  Level Indianapolis Center
Fri 12:20:29 PM 39.5064 -84.8853 226° Southwest 366 421 40,000  Level Indianapolis Center
Fri 12:21:31 PM 39.4358 -84.9767 225° Southwest 372 428 40,000  Level Indianapolis Center
Fri 12:22:33 PM 39.3636 -85.0689 225° Southwest 366 421 40,000  Level Indianapolis Center
Fri 12:23:34 PM 39.2936 -85.1611 226° Southwest 361 415 40,000  Level Indianapolis Center
Fri 12:24:36 PM 39.2236 -85.2519 225° Southwest 358 412 40,000 -290 Level Indianapolis Center
Fri 12:25:38 PM 39.1392 -85.3603 225° Southwest 357 411 39,400 -774 Descending Indianapolis Center
Fri 12:26:40 PM 39.0686 -85.4492 224° Southwest 356 410 38,400 -968 Descending Indianapolis Center
Fri 12:27:42 PM 38.9961 -85.5411 225° Southwest 363 418 37,400 -780 Descending Indianapolis Center
Fri 12:28:43 PM 38.9244 -85.6325 225° Southwest 362 417 36,800 -780 Descending Indianapolis Center
Fri 12:29:45 PM 38.8522 -85.7225 224° Southwest 363 418 35,800 -968 Descending Indianapolis Center
Fri 12:30:47 PM 38.7794 -85.8178 226° Southwest 373 429 34,800 -1,161 Descending Indianapolis Center
Fri 12:31:49 PM 38.6975 -85.9200 224° Southwest 372 428 33,400 -1,210 Descending Indianapolis Center
Fri 12:32:51 PM 38.6217 -86.0147 224° Southwest 377 434 32,300 -1,161 Descending Indianapolis Center
Fri 12:33:53 PM 38.5450 -86.1106 224° Southwest 382 440 31,000 -1,122 Descending Indianapolis Center
Fri 12:34:54 PM 38.4661 -86.2081 224° Southwest 390 449 30,000 -488 Descending Indianapolis Center
Fri 12:35:56 PM 38.3867 -86.3058 224° Southwest 393 452 30,000  Level Indianapolis Center
Fri 12:36:58 PM 38.2928 -86.4211 224° Southwest 388 447 30,000  Level Indianapolis Center
Fri 12:38:00 PM 38.2142 -86.5189 224° Southwest 391 450 30,000  Level Indianapolis Center
Fri 12:39:02 PM 38.1356 -86.6158 224° Southwest 390 449 30,000 -435 Level Indianapolis Center
Fri 12:40:04 PM 38.0564 -86.7133 224° Southwest 390 449 29,100 -1,161 Descending Indianapolis Center
Fri 12:41:06 PM 37.9761 -86.8097 223° Southwest 392 451 27,600 -1,463 Descending Indianapolis Center
Fri 12:42:07 PM 37.8981 -86.9067 224° Southwest 391 450 26,100 -1,463 Descending Indianapolis Center
Fri 12:43:09 PM 37.8200 -87.0011 224° Southwest 385 443 24,600 -1,452 Descending Indianapolis Center
Fri 12:44:11 PM 37.7444 -87.0931 224° Southwest 375 432 23,100 -1,500 Descending Indianapolis Center
Fri 12:45:13 PM 37.6719 -87.1819 224° Southwest 365 420 21,500 -1,597 Descending Indianapolis Center
Fri 12:46:15 PM 37.5942 -87.2744 223° Southwest 346 398 19,800 -1,671 Descending Indianapolis Center
Fri 12:46:32 PM 37.5714 -87.3036 225° Southwest 367 422 19,300 -1,558 Descending Memphis Center
Fri 12:47:32 PM 37.5025 -87.3872 224° Southwest 359 413 17,800 -1,500 Descending Memphis Center
Fri 12:48:32 PM 37.4378 -87.4631 223° Southwest 340 391 16,300 -1,350 Descending Memphis Center
Fri 12:49:32 PM 37.3789 -87.5331 223° Southwest 334 384 15,100 -1,400 Descending Memphis Center
Fri 12:50:32 PM 37.3161 -87.6081 224° Southwest 328 377 13,500 -1,550 Descending Memphis Center
Fri 12:51:32 PM 37.2531 -87.6808 223° Southwest 321 369 12,000 -1,500 Descending Memphis Center
Fri 12:52:32 PM 37.1900 -87.7531 222° Southwest 310 357 10,500 -1,500 Descending Memphis Center
Fri 12:53:32 PM 37.1392 -87.8172 225° Southwest 278 320 9,000 -1,500 Descending Memphis Center
Fri 12:54:32 PM 37.0864 -87.8786 223° Southwest 269 310 7,500 -1,500 Descending Memphis Center
Fri 12:55:32 PM 37.0333 -87.9403 223° Southwest 262 302 6,000 -1,550 Descending Memphis Center
Fri 12:56:32 PM 36.9844 -87.9961 222° Southwest 257 296 4,400 -1,500 Descending Memphis Center
Fri 12:57:32 PM 36.9356 -88.0522 223° Southwest 237 273 3,000 -950 Descending Memphis Center
Fri 12:58:32 PM 36.8967 -88.1000 225° Southwest 215 247 2,500 -250 Descending Memphis Center
Fri 12:59:32 PM 36.8642 -88.1450 228° Southwest 210 242 2,500  Level Memphis Center
Fri 01:00:32 PM 36.8256 -88.1928 225° Southwest 205 236 2,500 -100 Level Memphis Center
Fri 01:01:32 PM 36.7844 -88.2378 221° Southwest 205 236 2,300 -200 Descending Memphis Center

Login

Don't have an account? Register now (free) for customized features, flight alerts, and more!